createdAt,value
2018-03-06T00:01:39.510Z,119.80
2018-03-06T00:04:08.870Z,120.30
2018-03-06T00:06:37.775Z,115.33
2018-03-06T00:09:07.770Z,129.98
2018-03-06T00:11:36.221Z,124.13
2018-03-06T00:14:04.865Z,120.40
2018-03-06T00:16:33.728Z,123.70
2018-03-06T00:19:02.308Z,115.73
2018-03-06T00:21:31.214Z,117.30
2018-03-06T00:23:59.850Z,114.30
2018-03-06T00:26:28.319Z,128.00
2018-03-06T00:28:56.958Z,102.47
2018-03-06T00:31:25.533Z,113.83
2018-03-06T00:33:54.122Z,118.43
2018-03-06T00:36:22.990Z,125.73
2018-03-06T00:38:51.607Z,114.63
2018-03-06T00:41:20.180Z,133.93
2018-03-06T00:43:48.779Z,107.10
2018-03-06T00:46:17.650Z,126.68
2018-03-06T00:48:46.527Z,106.67
2018-03-06T00:51:15.198Z,129.87
2018-03-06T00:53:43.806Z,133.37
2018-03-06T00:56:12.538Z,120.20
2018-03-06T00:58:41.458Z,124.67
2018-03-06T01:01:10.372Z,131.20
2018-03-06T01:03:38.973Z,122.03
2018-03-06T01:06:08.334Z,137.67
2018-03-06T01:08:37.927Z,126.33
2018-03-06T01:11:06.821Z,122.53
2018-03-06T01:13:35.481Z,123.47
2018-03-06T01:16:03.752Z,142.33
2018-03-06T01:18:32.419Z,130.37
2018-03-06T01:21:01.770Z,128.27
2018-03-06T01:23:30.457Z,126.75
2018-03-06T01:25:59.346Z,121.62
2018-03-06T01:28:28.179Z,131.07
2018-03-06T01:30:56.794Z,119.40
2018-03-06T01:33:25.397Z,120.03
2018-03-06T01:35:54.363Z,125.07
2018-03-06T01:38:22.951Z,127.47
2018-03-06T01:40:51.574Z,136.40
2018-03-06T01:43:20.457Z,122.82
2018-03-06T01:45:49.323Z,129.40
2018-03-06T01:48:17.962Z,133.40
2018-03-06T01:50:46.554Z,116.50
2018-03-06T01:53:15.419Z,118.20
2018-03-06T01:55:44.293Z,123.10
2018-03-06T01:58:12.897Z,116.97
2018-03-06T02:00:41.729Z,115.97
2018-03-06T02:03:10.421Z,110.95
2018-03-06T02:05:40.033Z,116.33
2018-03-06T02:08:08.612Z,120.43
2018-03-06T02:10:37.215Z,115.27
2018-03-06T02:13:05.798Z,125.90
2018-03-06T02:15:34.618Z,123.33
2018-03-06T02:18:04.062Z,122.77
2018-03-06T02:20:31.940Z,126.00
2018-03-06T02:23:00.830Z,131.40
2018-03-06T02:25:29.290Z,129.00
2018-03-06T02:27:58.923Z,124.30
2018-03-06T02:30:27.888Z,118.33
2018-03-06T02:32:56.294Z,120.10
2018-03-06T02:35:24.930Z,137.17
2018-03-06T02:37:54.286Z,130.30
2018-03-06T02:40:22.902Z,129.33
2018-03-06T02:42:51.485Z,142.03
2018-03-06T02:45:20.360Z,126.87
2018-03-06T02:47:49.003Z,125.00
2018-03-06T02:50:18.793Z,118.93
2018-03-06T02:52:49.446Z,125.00
2018-03-06T02:55:18.238Z,111.90
2018-03-06T02:57:47.106Z,116.90
2018-03-06T03:00:15.690Z,133.63
2018-03-06T03:02:44.405Z,141.47
2018-03-06T03:05:12.808Z,131.00
2018-03-06T03:07:41.679Z,133.10
2018-03-06T03:10:09.418Z,125.67
2018-03-06T03:12:38.121Z,128.87
2018-03-06T03:15:07.079Z,140.77
2018-03-06T03:17:35.959Z,129.90
2018-03-06T03:20:04.693Z,134.20
2018-03-06T03:22:33.529Z,130.23
2018-03-06T03:25:02.389Z,133.12
2018-03-06T03:27:31.573Z,127.17
2018-03-06T03:30:00.496Z,122.77
2018-03-06T03:32:28.910Z,122.13
2018-03-06T03:34:58.551Z,126.37
2018-03-06T03:37:27.165Z,122.53
2018-03-06T03:39:55.573Z,131.50
2018-03-06T03:42:24.493Z,118.97
2018-03-06T03:44:53.080Z,131.33
2018-03-06T03:47:21.679Z,112.07
2018-03-06T03:49:50.308Z,129.50
2018-03-06T03:52:18.721Z,125.13
2018-03-06T03:54:47.457Z,120.57
2018-03-06T03:57:16.913Z,122.22
2018-03-06T03:59:45.811Z,121.03
2018-03-06T04:02:14.395Z,122.47
2018-03-06T04:04:43.247Z,136.02
2018-03-06T04:07:12.880Z,119.90
2018-03-06T04:09:41.899Z,131.80
2018-03-06T04:12:10.531Z,111.78
2018-03-06T04:14:39.242Z,131.33
2018-03-06T04:17:08.009Z,137.63
2018-03-06T04:19:37.421Z,129.57
2018-03-06T04:22:06.006Z,136.77
2018-03-06T04:24:34.824Z,126.70
2018-03-06T04:27:03.410Z,118.00
2018-03-06T04:29:32.198Z,117.23
2018-03-06T04:32:00.782Z,119.57
2018-03-06T04:34:29.648Z,128.03
2018-03-06T04:36:58.288Z,114.87
2018-03-06T04:39:27.134Z,133.13
2018-03-06T04:41:56.298Z,134.00
2018-03-06T04:44:24.698Z,121.53
2018-03-06T04:46:53.352Z,121.53
2018-03-06T04:49:22.194Z,131.13
2018-03-06T04:51:50.736Z,124.70
2018-03-06T04:54:19.348Z,126.17
2018-03-06T04:56:47.776Z,131.93
2018-03-06T04:59:17.414Z,144.27
2018-03-06T05:01:46.141Z,150.10
2018-03-06T05:04:15.390Z,118.45
2018-03-06T05:06:44.153Z,121.57
2018-03-06T05:09:13.797Z,137.68
2018-03-06T05:11:42.492Z,147.70
2018-03-06T05:14:11.067Z,149.70
2018-03-06T05:16:40.012Z,139.48
2018-03-06T05:19:08.870Z,131.57
2018-03-06T05:21:37.547Z,130.27
2018-03-06T05:24:06.838Z,147.77
2018-03-06T05:26:35.364Z,121.00
2018-03-06T05:29:03.979Z,141.27
2018-03-06T05:31:33.392Z,137.50
2018-03-06T05:34:02.072Z,124.23
2018-03-06T05:36:31.098Z,133.95
2018-03-06T05:39:00.703Z,150.33
2018-03-06T05:41:30.080Z,135.17
2018-03-06T05:43:58.995Z,124.93
2018-03-06T05:46:27.685Z,133.43
2018-03-06T05:48:57.038Z,134.37
2018-03-06T05:51:25.617Z,135.50
2018-03-06T05:53:54.497Z,128.38
2018-03-06T05:56:23.081Z,115.87
2018-03-06T05:58:51.700Z,120.17
2018-03-06T06:01:20.874Z,141.50
2018-03-06T06:03:49.748Z,135.43
2018-03-06T06:06:18.623Z,130.07
2018-03-06T06:08:49.723Z,122.22
2018-03-06T06:11:18.117Z,139.33
2018-03-06T06:13:46.989Z,124.12
2018-03-06T06:16:15.438Z,137.40
2018-03-06T06:18:43.830Z,125.10
2018-03-06T06:21:12.474Z,137.57
2018-03-06T06:23:41.360Z,131.45
2018-03-06T06:26:10.830Z,117.30
2018-03-06T06:28:39.566Z,121.18
2018-03-06T06:31:08.995Z,133.60
2018-03-06T06:33:37.506Z,125.17
2018-03-06T06:36:06.174Z,128.87
2018-03-06T06:38:34.911Z,125.87
2018-03-06T06:41:03.815Z,123.57
2018-03-06T06:43:32.511Z,139.90
2018-03-06T06:46:01.117Z,132.33
2018-03-06T06:48:29.534Z,126.87
2018-03-06T06:50:57.932Z,128.03
2018-03-06T06:53:26.358Z,125.25
2018-03-06T06:55:55.510Z,125.83
2018-03-06T06:58:23.894Z,133.37
2018-03-06T07:00:52.558Z,121.53
2018-03-06T07:03:20.960Z,120.40
2018-03-06T07:05:49.617Z,141.25
2018-03-06T07:08:18.141Z,135.93
2018-03-06T07:10:46.605Z,121.77
2018-03-06T07:13:15.270Z,105.63
2018-03-06T07:15:44.063Z,144.60
2018-03-06T07:18:13.629Z,130.57
2018-03-06T07:20:42.245Z,139.60
2018-03-06T07:23:11.677Z,139.60
2018-03-06T07:25:40.341Z,113.05
2018-03-06T07:28:09.653Z,124.30
2018-03-06T07:30:38.957Z,133.00
2018-03-06T07:33:08.275Z,110.90
2018-03-06T07:35:36.975Z,121.73
2018-03-06T07:38:06.410Z,118.97
2018-03-06T07:40:34.995Z,120.73
2018-03-06T07:43:03.393Z,143.57
2018-03-06T07:45:31.777Z,114.67
2018-03-06T07:48:00.446Z,126.30
2018-03-06T07:50:28.886Z,142.47
2018-03-06T07:52:58.048Z,122.93
2018-03-06T07:55:27.449Z,124.20
2018-03-06T07:57:55.645Z,141.47
2018-03-06T08:00:24.112Z,141.73
2018-03-06T08:02:52.659Z,130.80
2018-03-06T08:05:21.338Z,136.88
2018-03-06T08:07:50.120Z,117.40
2018-03-06T08:10:18.510Z,136.00
2018-03-06T08:12:46.894Z,132.93
2018-03-06T08:15:15.574Z,128.00
2018-03-06T08:17:44.326Z,154.68
2018-03-06T08:20:12.826Z,122.37
2018-03-06T08:22:41.466Z,149.27
2018-03-06T08:25:09.954Z,144.20
2018-03-06T08:27:39.118Z,120.20
2018-03-06T08:30:07.527Z,138.03
2018-03-06T08:32:36.150Z,138.07
2018-03-06T08:35:05.590Z,140.93
2018-03-06T08:37:33.995Z,134.50
2018-03-06T08:40:03.135Z,161.93
2018-03-06T08:42:31.802Z,126.32
2018-03-06T08:45:00.198Z,134.87
2018-03-06T08:47:28.581Z,130.83
2018-03-06T08:49:57.165Z,136.60
2018-03-06T08:52:25.618Z,132.00
2018-03-06T08:54:54.286Z,137.07
2018-03-06T08:57:23.005Z,141.20
2018-03-06T08:59:51.485Z,145.50
2018-03-06T09:02:20.925Z,139.87
2018-03-06T09:04:49.317Z,155.77
2018-03-06T09:07:18.147Z,123.73
2018-03-06T09:09:46.538Z,127.70
2018-03-06T09:12:15.233Z,142.93
2018-03-06T09:14:44.026Z,141.27
2018-03-06T09:17:12.383Z,143.57
2018-03-06T09:19:40.781Z,144.10
2018-03-06T09:22:08.840Z,130.60
2018-03-06T09:24:37.224Z,148.00
2018-03-06T09:27:05.906Z,142.25
2018-03-06T09:29:34.294Z,139.07
2018-03-06T09:32:02.962Z,132.18
2018-03-06T09:34:31.358Z,136.43
2018-03-06T09:37:00.062Z,127.78
2018-03-06T09:39:28.462Z,136.57
2018-03-06T09:41:57.130Z,143.37
2018-03-06T09:44:25.710Z,147.80
2018-03-06T09:46:54.382Z,142.32
2018-03-06T09:49:22.797Z,137.30
2018-03-06T09:51:51.463Z,129.43
2018-03-06T09:54:20.162Z,158.83
2018-03-06T09:56:48.825Z,147.37
2018-03-06T09:59:17.223Z,138.87
2018-03-06T10:01:46.380Z,148.97
2018-03-06T10:04:14.782Z,142.27
2018-03-06T10:06:43.458Z,139.65
2018-03-06T10:09:12.953Z,133.93
2018-03-06T10:11:41.351Z,138.10
2018-03-06T10:14:10.510Z,137.57
2018-03-06T10:16:39.184Z,133.63
2018-03-06T10:19:08.504Z,135.20
2018-03-06T10:21:36.894Z,126.23
2018-03-06T10:24:05.575Z,147.48
2018-03-06T10:26:33.961Z,140.77
2018-03-06T10:29:02.374Z,133.60
2018-03-06T10:31:31.034Z,137.07
2018-03-06T10:34:00.193Z,143.20
2018-03-06T10:36:29.061Z,148.75
2018-03-06T10:38:57.914Z,145.85
2018-03-06T10:41:26.482Z,140.97
2018-03-06T10:43:54.915Z,161.40
2018-03-06T10:46:23.784Z,148.03
2018-03-06T10:48:52.426Z,142.93
2018-03-06T10:51:20.933Z,151.33
2018-03-06T10:53:49.265Z,149.00
2018-03-06T10:56:17.735Z,137.83
2018-03-06T10:58:46.645Z,159.83
2018-03-06T11:01:20.558Z,153.97
2018-03-06T11:03:48.995Z,151.67
2018-03-06T11:06:18.106Z,174.30
2018-03-06T11:08:46.504Z,153.20
2018-03-06T11:11:15.182Z,157.93
2018-03-06T11:13:43.659Z,151.63
2018-03-06T11:16:12.990Z,147.90
2018-03-06T11:18:41.654Z,152.07
2018-03-06T11:21:10.238Z,149.10
2018-03-06T11:23:39.522Z,158.10
2018-03-06T11:26:07.921Z,155.87
2018-03-06T11:28:36.575Z,154.77
2018-03-06T11:31:05.174Z,156.53
2018-03-06T11:33:33.751Z,140.73
2018-03-06T11:36:02.271Z,145.80
2018-03-06T11:38:31.633Z,163.23
2018-03-06T11:41:00.123Z,146.47
2018-03-06T11:43:28.513Z,144.50
2018-03-06T11:45:56.945Z,143.17
2018-03-06T11:48:25.335Z,165.53
2018-03-06T11:50:53.831Z,161.40
2018-03-06T11:53:22.039Z,157.27
2018-03-06T11:55:51.190Z,173.27
2018-03-06T11:58:19.595Z,145.53
2018-03-06T12:00:47.983Z,151.00
2018-03-06T12:03:16.627Z,159.27
2018-03-06T12:05:45.114Z,162.45
2018-03-06T12:08:13.705Z,165.20
2018-03-06T12:10:42.211Z,183.20
2018-03-06T12:13:10.854Z,165.97
2018-03-06T12:15:39.262Z,171.53
2018-03-06T12:18:07.841Z,166.00
2018-03-06T12:20:36.698Z,174.15
2018-03-06T12:23:04.953Z,173.07
2018-03-06T12:25:34.390Z,167.93
2018-03-06T12:28:03.900Z,162.70
2018-03-06T12:30:32.599Z,182.57
2018-03-06T12:33:01.186Z,171.73
2018-03-06T12:35:30.674Z,161.33
2018-03-06T12:37:59.326Z,156.27
2018-03-06T12:40:27.725Z,173.30
2018-03-06T12:42:56.153Z,168.57
2018-03-06T12:45:25.042Z,160.83
2018-03-06T12:47:54.194Z,160.60
2018-03-06T12:50:22.776Z,172.37
2018-03-06T12:52:52.255Z,161.20
2018-03-06T12:55:21.706Z,151.32
2018-03-06T12:57:50.137Z,158.60
2018-03-06T13:00:18.533Z,148.10
2018-03-06T13:02:46.917Z,163.70
2018-03-06T13:05:15.562Z,153.30
2018-03-06T13:07:43.918Z,165.52
2018-03-06T13:10:12.293Z,158.25
2018-03-06T13:12:40.965Z,161.65
2018-03-06T13:15:09.343Z,142.87
2018-03-06T13:17:37.787Z,167.77
2018-03-06T13:20:06.460Z,144.98
2018-03-06T13:22:38.224Z,147.98
2018-03-06T13:25:06.619Z,146.40
2018-03-06T13:27:35.583Z,142.87
2018-03-06T13:30:03.634Z,167.63
2018-03-06T13:32:32.414Z,158.57
2018-03-06T13:35:02.180Z,140.00
2018-03-06T13:37:30.576Z,158.23
2018-03-06T13:39:59.194Z,154.43
2018-03-06T13:42:28.435Z,154.60
2018-03-06T13:44:57.142Z,133.63
2018-03-06T13:47:25.783Z,140.00
2018-03-06T13:49:54.158Z,156.00
2018-03-06T13:52:22.698Z,146.17
2018-03-06T13:54:51.282Z,150.67
2018-03-06T13:57:19.973Z,143.13
2018-03-06T13:59:49.128Z,134.63
2018-03-06T14:02:17.568Z,132.87
2018-03-06T14:04:45.964Z,148.00
2018-03-06T14:07:14.366Z,142.00
2018-03-06T14:09:43.566Z,142.20
2018-03-06T14:12:12.348Z,139.82
2018-03-06T14:14:40.738Z,147.57
2018-03-06T14:17:09.406Z,163.62
2018-03-06T14:19:37.924Z,153.53
2018-03-06T14:22:07.083Z,136.70
2018-03-06T14:24:35.489Z,154.97
2018-03-06T14:27:04.271Z,137.20
2018-03-06T14:29:32.671Z,131.83
2018-03-06T14:32:01.285Z,144.77
2018-03-06T14:34:30.712Z,155.30
2018-03-06T14:36:59.110Z,134.90
2018-03-06T14:39:27.785Z,135.37
2018-03-06T14:41:56.639Z,130.70
2018-03-06T14:44:25.174Z,122.80
2018-03-06T14:46:53.643Z,130.50
2018-03-06T14:49:22.050Z,142.90
2018-03-06T14:51:50.806Z,140.55
2018-03-06T14:54:19.599Z,136.80
2018-03-06T14:56:47.986Z,136.00
2018-03-06T14:59:17.254Z,131.07
2018-03-06T15:01:45.719Z,133.57
2018-03-06T15:04:15.048Z,154.43
2018-03-06T15:06:43.454Z,148.30
2018-03-06T15:09:12.606Z,132.87
2018-03-06T15:11:41.276Z,135.55
2018-03-06T15:14:10.715Z,144.33
2018-03-06T15:16:39.118Z,148.00
2018-03-06T15:19:07.626Z,150.37
2018-03-06T15:21:37.093Z,157.07
2018-03-06T15:24:06.461Z,139.33
2018-03-06T15:26:35.122Z,154.32
2018-03-06T15:29:03.608Z,151.60
2018-03-06T15:31:32.010Z,146.07
2018-03-06T15:34:00.587Z,146.23
2018-03-06T15:36:29.795Z,153.13
2018-03-06T15:38:58.658Z,155.30
2018-03-06T15:41:28.036Z,150.48
2018-03-06T15:43:56.630Z,162.53
2018-03-06T15:46:25.038Z,141.70
2018-03-06T15:48:53.698Z,136.10
2018-03-06T15:51:22.406Z,141.93
2018-03-06T15:53:51.094Z,158.90
2018-03-06T15:56:19.790Z,139.90
2018-03-06T15:58:48.438Z,156.15
2018-03-06T16:01:16.835Z,168.10
2018-03-06T16:03:45.287Z,151.13
2018-03-06T16:06:14.729Z,168.62
2018-03-06T16:08:43.393Z,148.62
2018-03-06T16:11:12.060Z,162.50
2018-03-06T16:13:40.453Z,150.20
2018-03-06T16:16:09.122Z,144.48
2018-03-06T16:18:37.511Z,161.47
2018-03-06T16:21:05.894Z,145.57
2018-03-06T16:23:34.391Z,151.87
2018-03-06T16:26:02.824Z,153.23
2018-03-06T16:28:31.315Z,163.17
2018-03-06T16:31:00.334Z,178.10
2018-03-06T16:33:29.547Z,158.30
2018-03-06T16:35:57.934Z,163.73
2018-03-06T16:38:26.326Z,178.63
2018-03-06T16:40:55.466Z,153.00
2018-03-06T16:43:24.188Z,164.60
2018-03-06T16:45:52.846Z,160.82
2018-03-06T16:48:21.238Z,166.90
2018-03-06T16:50:49.701Z,156.00
2018-03-06T16:53:18.094Z,164.43
2018-03-06T16:55:46.492Z,163.80
2018-03-06T16:58:14.885Z,144.63
2018-03-06T17:00:43.364Z,150.07
2018-03-06T17:03:13.063Z,167.18
2018-03-06T17:05:42.349Z,136.47
2018-03-06T17:08:11.048Z,154.10
2018-03-06T17:10:40.325Z,182.43
2018-03-06T17:13:09.773Z,164.10
2018-03-06T17:15:38.158Z,146.93
2018-03-06T17:18:06.593Z,149.37
2018-03-06T17:20:35.781Z,142.10
2018-03-06T17:23:04.187Z,150.00
2018-03-06T17:25:33.350Z,176.77
2018-03-06T17:28:01.741Z,156.60
2018-03-06T17:30:30.135Z,159.60
2018-03-06T17:32:58.717Z,151.60
2018-03-06T17:35:28.544Z,157.70
2018-03-06T17:37:57.064Z,137.43
2018-03-06T17:40:25.585Z,147.93
2018-03-06T17:42:54.066Z,152.87
2018-03-06T17:45:23.223Z,158.80
2018-03-06T17:47:51.838Z,176.07
2018-03-06T17:50:24.778Z,174.05
2018-03-06T17:52:53.404Z,159.50
2018-03-06T17:55:22.039Z,158.97
2018-03-06T17:57:51.357Z,162.70
2018-03-06T18:00:19.827Z,157.23
2018-03-06T18:02:48.260Z,168.07
2018-03-06T18:05:16.823Z,153.47
2018-03-06T18:07:45.757Z,149.90
2018-03-06T18:10:14.317Z,162.67
2018-03-06T18:12:43.165Z,163.30
2018-03-06T18:15:11.556Z,157.13
2018-03-06T18:17:39.946Z,148.77
2018-03-06T18:20:08.598Z,147.23
2018-03-06T18:22:36.994Z,157.60
2018-03-06T18:25:05.526Z,168.97
2018-03-06T18:27:34.240Z,147.13
2018-03-06T18:30:02.622Z,152.93
2018-03-06T18:32:31.246Z,148.97
2018-03-06T18:34:59.905Z,151.10
2018-03-06T18:37:28.343Z,155.57
2018-03-06T18:39:57.162Z,159.18
2018-03-06T18:42:26.485Z,168.50
2018-03-06T18:44:55.164Z,162.67
2018-03-06T18:47:23.753Z,155.97
2018-03-06T18:50:01.490Z,147.32
2018-03-06T18:52:30.845Z,152.37
2018-03-06T18:54:59.503Z,154.75
2018-03-06T18:57:28.987Z,181.97
2018-03-06T19:03:24.713Z,145.62
2018-03-06T19:05:57.312Z,158.57
2018-03-06T19:08:25.716Z,161.87
2018-03-06T19:10:54.394Z,184.57
2018-03-06T19:13:22.791Z,174.13
2018-03-06T19:15:51.463Z,149.87
2018-03-06T19:18:19.863Z,160.00
2018-03-06T19:20:48.253Z,158.70
2018-03-06T19:23:16.877Z,161.80
2018-03-06T19:25:45.528Z,144.50
2018-03-06T19:28:14.195Z,157.70
2018-03-06T19:30:42.763Z,154.20
2018-03-06T19:33:11.408Z,158.13
2018-03-06T19:35:39.795Z,157.83
2018-03-06T19:38:08.225Z,151.80
2018-03-06T19:40:36.898Z,153.10
2018-03-06T19:43:06.062Z,158.90
2018-03-06T19:45:34.454Z,153.03
2018-03-06T19:48:03.209Z,142.73
2018-03-06T19:50:31.627Z,151.13
2018-03-06T19:53:01.024Z,132.90
2018-03-06T19:55:29.418Z,133.00
2018-03-06T19:57:57.950Z,136.03
2018-03-06T20:00:27.378Z,137.77
2018-03-06T20:02:55.786Z,149.70
2018-03-06T20:05:24.471Z,150.98
2018-03-06T20:07:52.854Z,147.60
2018-03-06T20:10:21.529Z,154.55
2018-03-06T20:12:49.918Z,148.03
2018-03-06T20:15:18.589Z,154.82
2018-03-06T20:17:47.170Z,126.27
2018-03-06T20:20:15.561Z,129.77
2018-03-06T20:22:45.040Z,121.57
2018-03-06T20:25:18.850Z,134.73
2018-03-06T20:27:47.371Z,121.93
2018-03-06T20:30:21.551Z,109.57
2018-03-06T20:32:55.662Z,123.80
2018-03-06T20:35:24.325Z,113.18
2018-03-06T20:37:53.099Z,123.40
2018-03-06T20:40:27.951Z,128.60
2018-03-06T20:42:57.564Z,124.07
2018-03-06T20:45:25.866Z,131.53
2018-03-06T20:47:55.157Z,145.63
2018-03-06T20:50:23.830Z,114.30
2018-03-06T20:52:57.804Z,133.90
2018-03-06T20:55:26.475Z,137.10
2018-03-06T20:57:55.909Z,136.23
2018-03-06T21:00:24.309Z,119.93
2018-03-06T21:02:52.850Z,128.53
2018-03-06T21:05:22.285Z,118.23
2018-03-06T21:07:51.025Z,140.10
2018-03-06T21:10:19.475Z,115.20
2018-03-06T21:12:48.630Z,122.20
2018-03-06T21:15:17.374Z,117.93
2018-03-06T21:17:46.180Z,121.63
2018-03-06T21:20:14.651Z,104.63
2018-03-06T21:22:43.157Z,110.03
2018-03-06T21:25:11.695Z,97.27
2018-03-06T21:27:40.362Z,100.17
2018-03-06T21:30:09.022Z,102.40
2018-03-06T21:32:38.947Z,94.33
2018-03-06T21:35:07.519Z,91.17
2018-03-06T21:37:35.903Z,101.70
2018-03-06T21:40:03.449Z,94.60
2018-03-06T21:42:32.131Z,82.90
2018-03-06T21:45:00.794Z,81.67
2018-03-06T21:47:29.182Z,82.70
2018-03-06T21:49:57.567Z,98.97
2018-03-06T21:52:25.963Z,87.53
2018-03-06T21:54:54.358Z,91.33
2018-03-06T21:57:22.940Z,94.33
2018-03-06T21:59:51.425Z,92.03
2018-03-06T22:02:20.797Z,81.03
2018-03-06T22:04:49.462Z,80.07
2018-03-06T22:07:17.849Z,77.47
2018-03-06T22:09:46.234Z,95.20
2018-03-06T22:12:14.893Z,91.03
2018-03-06T22:14:43.277Z,86.43
2018-03-06T22:17:11.959Z,83.80
2018-03-06T22:19:40.907Z,95.43
2018-03-06T22:22:09.519Z,88.03
2018-03-06T22:24:38.945Z,88.15
2018-03-06T22:27:07.419Z,80.43
2018-03-06T22:29:35.798Z,79.23
2018-03-06T22:32:05.103Z,89.07
2018-03-06T22:34:33.501Z,75.93
2018-03-06T22:37:02.173Z,81.60
2018-03-06T22:39:30.562Z,69.97
2018-03-06T22:41:58.942Z,77.23
2018-03-06T22:44:27.338Z,85.90
2018-03-06T22:46:56.503Z,81.53
2018-03-06T22:49:24.902Z,70.10
2018-03-06T22:51:54.059Z,75.90
2018-03-06T22:54:22.462Z,80.63
2018-03-06T22:56:51.122Z,63.13
2018-03-06T22:59:19.510Z,72.07
2018-03-06T23:01:48.214Z,67.50
2018-03-06T23:04:17.074Z,72.57
2018-03-06T23:06:45.721Z,70.40
2018-03-06T23:09:14.050Z,72.60
2018-03-06T23:11:42.421Z,67.47
2018-03-06T23:14:11.089Z,73.75
2018-03-06T23:16:40.505Z,67.85
2018-03-06T23:19:09.181Z,70.73
2018-03-06T23:21:37.569Z,63.70
2018-03-06T23:24:06.069Z,66.00
2018-03-06T23:26:34.449Z,65.23
2018-03-06T23:29:02.723Z,59.70
2018-03-06T23:31:32.007Z,63.30
2018-03-06T23:34:00.887Z,74.00
2018-03-06T23:36:29.491Z,74.40
2018-03-06T23:38:58.154Z,62.05
2018-03-06T23:41:26.738Z,67.70
2018-03-06T23:43:55.114Z,60.83
2018-03-06T23:46:23.884Z,72.55
2018-03-06T23:48:52.274Z,62.53
2018-03-06T23:51:20.946Z,65.83
2018-03-06T23:53:49.618Z,57.73
2018-03-06T23:56:18.276Z,56.70
2018-03-06T23:58:47.019Z,66.60
